createdAt,value
2019-05-21T19:20:36.798Z,66.70
2019-05-21T19:23:05.586Z,67.80
2019-05-21T19:25:34.262Z,68.20
2019-05-21T19:28:02.858Z,68.50
2019-05-21T19:30:31.677Z,68.70
2019-05-21T19:33:00.458Z,69.00
2019-05-21T19:35:29.036Z,69.10
2019-05-21T19:37:58.097Z,69.30
2019-05-21T19:40:26.844Z,69.40
2019-05-21T19:43:03.772Z,69.50
2019-05-21T19:45:32.389Z,69.70
2019-05-21T19:48:00.950Z,69.80
2019-05-21T19:50:29.669Z,70.00
2019-05-21T19:52:58.113Z,70.10
2019-05-21T19:55:27.508Z,70.10
2019-05-21T19:57:55.989Z,70.30
2019-05-21T20:00:26.229Z,70.40
2019-05-21T20:02:55.100Z,70.50
2019-05-21T20:05:23.753Z,70.60
2019-05-21T20:07:52.197Z,70.80
2019-05-21T20:10:21.290Z,70.90
2019-05-21T20:12:49.925Z,71.00
2019-05-21T20:15:18.570Z,72.60
2019-05-21T20:17:50.718Z,72.60
2019-05-21T20:20:20.082Z,72.50
2019-05-21T20:22:48.537Z,72.40
2019-05-21T20:25:17.135Z,72.30
2019-05-21T20:27:47.277Z,72.30
2019-05-21T20:30:20.327Z,72.30
2019-05-21T20:32:49.833Z,72.30
2019-05-21T20:35:20.505Z,72.40
2019-05-21T20:37:50.923Z,72.40
2019-05-21T20:40:20.414Z,73.30
2019-05-21T20:42:51.435Z,72.50
2019-05-21T20:45:20.977Z,72.60
2019-05-21T20:47:52.122Z,72.60
2019-05-21T20:50:22.950Z,72.80
2019-05-21T20:52:52.503Z,72.80
2019-05-21T20:55:21.424Z,72.90
2019-05-21T20:57:52.190Z,73.00
2019-05-21T21:00:29.405Z,73.10
2019-05-21T21:03:00.029Z,73.10
2019-05-21T21:05:28.642Z,73.30
2019-05-21T21:07:57.808Z,73.30
2019-05-21T21:10:26.430Z,75.80
2019-05-21T21:12:55.073Z,75.70
2019-05-21T21:15:23.486Z,75.70
2019-05-21T21:17:52.821Z,75.50
2019-05-21T21:20:21.572Z,75.50
2019-05-21T21:22:49.976Z,75.20
2019-05-21T21:25:24.269Z,75.20
2019-05-21T21:27:52.853Z,75.20
2019-05-21T21:30:21.354Z,75.30
2019-05-21T21:32:50.359Z,75.30
2019-05-21T21:35:19.277Z,75.30
2019-05-21T21:37:47.856Z,75.20
2019-05-21T21:40:18.159Z,75.10
2019-05-21T21:42:46.741Z,75.10
2019-05-21T21:45:15.618Z,75.00
2019-05-21T21:47:44.799Z,75.00
2019-05-21T21:50:13.942Z,75.10
2019-05-21T21:52:43.090Z,75.10
2019-05-21T21:55:13.414Z,75.20
2019-05-21T21:57:41.775Z,75.20
2019-05-21T22:00:56.751Z,75.30
2019-05-21T22:03:30.229Z,75.50
2019-05-21T22:06:02.123Z,75.50
2019-05-21T22:08:32.211Z,75.60
2019-05-21T22:11:01.284Z,75.80
2019-05-21T22:13:30.261Z,75.80
2019-05-21T22:15:59.072Z,76.00
2019-05-21T22:18:27.851Z,76.10
2019-05-21T22:20:57.217Z,76.20
2019-05-21T22:23:26.154Z,76.50
2019-05-21T22:25:59.303Z,76.50
2019-05-21T22:28:27.994Z,76.50
2019-05-21T22:30:56.613Z,76.50
2019-05-21T22:33:25.333Z,76.40
2019-05-21T22:35:53.930Z,77.00
2019-05-21T22:38:23.296Z,77.10
2019-05-21T22:40:51.592Z,76.90
2019-05-21T22:43:20.767Z,76.70
2019-05-21T22:45:49.860Z,76.50
2019-05-21T22:48:18.394Z,76.40
2019-05-21T22:50:46.927Z,76.30
2019-05-21T22:53:15.386Z,76.10
2019-05-21T22:55:43.695Z,76.90
2019-05-21T22:58:12.075Z,77.00
2019-05-21T23:00:42.390Z,76.90
2019-05-21T23:03:10.901Z,76.90
2019-05-21T23:05:39.402Z,76.90
2019-05-21T23:08:08.304Z,77.00
2019-05-21T23:10:36.787Z,77.00
2019-05-21T23:13:05.304Z,77.00
2019-05-21T23:15:33.902Z,77.00
2019-05-21T23:18:19.438Z,77.00
2019-05-21T23:21:00.209Z,77.10
2019-05-21T23:23:34.501Z,77.00
2019-05-21T23:26:04.905Z,77.10
2019-05-21T23:28:34.539Z,79.00
2019-05-21T23:31:05.072Z,79.00
2019-05-21T23:33:34.095Z,78.80
2019-05-21T23:36:03.270Z,78.70
2019-05-21T23:38:31.995Z,78.50
2019-05-21T23:41:03.062Z,78.50
2019-05-21T23:43:32.121Z,78.40
2019-05-21T23:46:00.793Z,78.30
2019-05-21T23:48:30.630Z,78.50
2019-05-21T23:50:59.482Z,78.80
2019-05-21T23:53:27.993Z,78.80
2019-05-21T23:55:56.573Z,78.80
2019-05-21T23:58:25.266Z,79.40
